createdAt,value
2019-04-01T00:02:06.592Z,4.90
2019-04-01T00:04:35.963Z,4.80
2019-04-01T00:07:05.324Z,4.80
2019-04-01T00:09:34.533Z,4.80
2019-04-01T00:12:03.805Z,4.70
2019-04-01T00:14:33.150Z,4.70
2019-04-01T00:17:02.415Z,4.60
2019-04-01T00:19:31.715Z,4.60
2019-04-01T00:22:01.093Z,4.60
2019-04-01T00:24:30.251Z,4.60
2019-04-01T00:26:59.541Z,4.50
2019-04-01T00:29:28.991Z,4.50
2019-04-01T00:31:58.334Z,4.50
2019-04-01T00:34:27.661Z,4.50
2019-04-01T00:36:57.650Z,4.40
2019-04-01T00:39:26.914Z,4.40
2019-04-01T00:42:14.842Z,4.30
2019-04-01T00:44:44.402Z,4.30
2019-04-01T00:47:14.025Z,4.20
2019-04-01T00:49:43.378Z,4.30
2019-04-01T00:52:12.640Z,4.20
2019-04-01T00:54:41.900Z,4.20
2019-04-01T00:57:11.109Z,4.20
2019-04-01T00:59:41.980Z,4.10
2019-04-01T01:02:11.185Z,4.10
2019-04-01T01:04:40.677Z,4.10
2019-04-01T01:07:10.064Z,4.10
2019-04-01T01:09:39.486Z,4.10
2019-04-01T01:12:08.840Z,4.10
2019-04-01T01:14:38.066Z,4.10
2019-04-01T01:17:07.316Z,4.10
2019-04-01T01:19:42.579Z,4.00
2019-04-01T01:22:11.931Z,4.10
2019-04-01T01:24:41.357Z,4.10
2019-04-01T01:27:10.650Z,4.00
2019-04-01T01:29:40.032Z,4.00
2019-04-01T01:32:09.209Z,4.00
2019-04-01T01:34:38.471Z,4.00
2019-04-01T01:37:07.793Z,4.00
2019-04-01T01:39:37.033Z,4.00
2019-04-01T01:42:06.379Z,3.90
2019-04-01T01:44:35.621Z,4.00
2019-04-01T01:47:04.954Z,3.90
2019-04-01T01:49:34.102Z,3.90
2019-04-01T01:52:03.349Z,3.80
2019-04-01T01:54:32.827Z,3.90
2019-04-01T01:57:02.097Z,3.80
2019-04-01T01:59:31.679Z,3.80
2019-04-01T02:02:00.994Z,3.80
2019-04-01T02:04:30.293Z,3.80
2019-04-01T02:06:59.656Z,3.70
2019-04-01T02:09:28.994Z,3.70
2019-04-01T02:11:58.281Z,3.70
2019-04-01T02:14:27.536Z,3.70
2019-04-01T02:16:56.904Z,3.70
2019-04-01T02:19:26.203Z,3.70
2019-04-01T02:21:55.620Z,3.70
2019-04-01T02:24:24.906Z,3.70
2019-04-01T02:26:54.151Z,3.60
2019-04-01T02:29:23.420Z,3.70
2019-04-01T02:31:52.697Z,3.60
2019-04-01T02:34:22.021Z,3.60
2019-04-01T02:36:51.283Z,3.60
2019-04-01T02:39:20.481Z,3.60
2019-04-01T02:41:49.712Z,3.60
2019-04-01T02:44:22.950Z,3.60
2019-04-01T02:46:52.176Z,3.50
2019-04-01T02:49:21.396Z,3.50
2019-04-01T02:51:50.563Z,3.50
2019-04-01T02:54:19.754Z,3.40
2019-04-01T02:56:49.023Z,3.40
2019-04-01T02:59:18.280Z,3.40
2019-04-01T03:01:47.605Z,3.40
2019-04-01T03:04:16.893Z,3.40
2019-04-01T03:06:46.298Z,3.40
2019-04-01T03:09:15.584Z,3.30
2019-04-01T03:11:44.907Z,3.30
2019-04-01T03:14:14.263Z,3.30
2019-04-01T03:16:43.587Z,3.30
2019-04-01T03:19:12.914Z,3.20
2019-04-01T03:21:42.223Z,3.20
2019-04-01T03:24:11.662Z,3.10
2019-04-01T03:26:40.945Z,3.10
2019-04-01T03:29:10.354Z,3.10
2019-04-01T03:31:39.750Z,3.10
2019-04-01T03:34:09.017Z,3.10
2019-04-01T03:36:38.464Z,3.00
2019-04-01T03:39:08.044Z,2.90
2019-04-01T03:41:37.333Z,3.00
2019-04-01T03:44:06.567Z,3.00
2019-04-01T03:46:35.921Z,2.90
2019-04-01T03:49:05.447Z,2.90
2019-04-01T03:51:34.833Z,2.90
2019-04-01T03:54:04.218Z,2.80
2019-04-01T03:56:33.483Z,2.80
2019-04-01T03:59:02.753Z,2.80
2019-04-01T04:01:32.044Z,2.80
2019-04-01T04:04:01.329Z,2.80
2019-04-01T04:06:30.694Z,2.70
2019-04-01T04:09:02.240Z,2.70
2019-04-01T04:11:31.004Z,2.60
2019-04-01T04:14:00.367Z,2.60
2019-04-01T04:16:29.692Z,2.60
2019-04-01T04:18:58.946Z,2.60
2019-04-01T04:21:28.275Z,2.60
2019-04-01T04:23:57.546Z,2.60
2019-04-01T04:26:26.967Z,2.60
2019-04-01T04:28:56.326Z,2.60
2019-04-01T04:31:25.633Z,2.50
2019-04-01T04:33:54.753Z,2.50
2019-04-01T04:36:24.075Z,2.40
2019-04-01T04:38:53.344Z,2.50
2019-04-01T04:41:22.529Z,2.50
2019-04-01T04:43:51.700Z,2.40
2019-04-01T04:46:21.442Z,2.40
2019-04-01T04:48:51.020Z,2.30
2019-04-01T04:51:20.304Z,2.30
2019-04-01T04:53:49.575Z,2.30
2019-04-01T04:56:18.749Z,2.40
2019-04-01T04:58:48.157Z,2.30
2019-04-01T05:01:18.041Z,2.30
2019-04-01T05:03:47.683Z,2.30
2019-04-01T05:06:17.153Z,2.30
2019-04-01T05:08:46.401Z,2.30
2019-04-01T05:11:15.700Z,2.30
2019-04-01T05:20:55.158Z,2.30
2019-04-01T05:23:26.260Z,2.30
2019-04-01T05:25:55.631Z,2.30
2019-04-01T05:28:50.540Z,2.30
2019-04-01T05:31:22.204Z,2.30
2019-04-01T05:33:55.594Z,2.40
2019-04-01T05:36:27.672Z,2.40
2019-04-01T05:38:57.147Z,2.40
2019-04-01T05:41:26.859Z,2.30
2019-04-01T05:44:02.291Z,2.40
2019-04-01T05:46:32.618Z,2.40
2019-04-01T05:49:01.890Z,2.40
2019-04-01T05:51:31.097Z,2.40
2019-04-01T05:54:00.285Z,2.50
2019-04-01T05:56:29.453Z,2.50
2019-04-01T05:58:58.672Z,2.60
2019-04-01T06:01:33.657Z,2.60
2019-04-01T06:04:02.985Z,2.60
2019-04-01T06:06:32.318Z,2.60
2019-04-01T06:09:01.570Z,2.70
2019-04-01T06:11:30.795Z,2.70
2019-04-01T06:14:00.384Z,2.80
2019-04-01T06:16:29.812Z,2.80
2019-04-01T06:18:58.903Z,2.80
2019-04-01T06:21:28.387Z,2.90
2019-04-01T06:23:58.428Z,3.00
2019-04-01T06:26:27.626Z,3.10
2019-04-01T06:28:56.878Z,3.10
2019-04-01T06:31:26.131Z,3.10
2019-04-01T06:33:55.633Z,3.10
2019-04-01T06:36:25.030Z,3.10
2019-04-01T06:38:54.300Z,3.20
2019-04-01T06:41:23.506Z,3.20
2019-04-01T06:43:52.923Z,3.20
2019-04-01T06:46:22.138Z,3.30
2019-04-01T06:48:51.319Z,3.40
2019-04-01T06:51:20.501Z,3.40
2019-04-01T06:53:49.722Z,3.30
2019-04-01T06:56:19.108Z,3.40
2019-04-01T06:58:48.372Z,3.50
2019-04-01T07:01:17.535Z,3.50
2019-04-01T07:03:46.842Z,3.60
2019-04-01T07:06:16.082Z,3.60
2019-04-01T07:08:45.218Z,3.60
2019-04-01T07:11:14.465Z,3.70
2019-04-01T07:13:44.089Z,3.70
2019-04-01T07:16:15.627Z,3.80
2019-04-01T07:18:44.240Z,3.90
2019-04-01T07:21:13.550Z,3.90
2019-04-01T07:23:43.174Z,3.90
2019-04-01T07:26:12.464Z,4.00
2019-04-01T07:28:41.778Z,4.10
2019-04-01T07:31:30.012Z,4.20
2019-04-01T07:33:59.150Z,4.30
2019-04-01T07:36:28.266Z,4.50
2019-04-01T07:38:58.573Z,5.10
2019-04-01T07:41:27.672Z,5.90
2019-04-01T07:43:56.991Z,6.60
2019-04-01T07:46:26.095Z,7.30
2019-04-01T07:48:55.153Z,8.00
2019-04-01T07:51:24.348Z,8.50
2019-04-01T07:53:53.620Z,9.00
2019-04-01T07:56:23.295Z,9.40
2019-04-01T07:58:52.453Z,9.80
2019-04-01T08:01:21.639Z,10.00
2019-04-01T08:03:51.339Z,10.30
2019-04-01T08:06:21.409Z,10.70
2019-04-01T08:08:50.646Z,10.90
2019-04-01T08:11:19.913Z,11.00
2019-04-01T08:13:49.044Z,11.00
2019-04-01T08:16:18.173Z,11.00
2019-04-01T08:18:47.227Z,11.10
2019-04-01T08:21:16.369Z,11.10
2019-04-01T08:23:45.478Z,11.10
2019-04-01T08:26:14.734Z,11.10
2019-04-01T08:28:43.762Z,11.10
2019-04-01T08:31:13.424Z,11.00
2019-04-01T08:33:42.957Z,11.00
2019-04-01T08:36:12.564Z,10.80
2019-04-01T08:38:41.726Z,10.50
2019-04-01T08:41:11.040Z,10.70
2019-04-01T08:43:40.213Z,10.50
2019-04-01T08:46:09.319Z,10.40
2019-04-01T08:48:38.389Z,10.30
2019-04-01T08:51:08.804Z,10.20
2019-04-01T08:53:38.460Z,10.10
2019-04-01T08:56:09.906Z,10.00
2019-04-01T08:58:39.004Z,9.80
2019-04-01T09:01:08.107Z,9.70
2019-04-01T09:03:37.201Z,9.70
2019-04-01T09:06:06.464Z,9.60
2019-04-01T09:08:37.027Z,9.50
2019-04-01T09:11:06.110Z,9.40
2019-04-01T09:13:35.160Z,9.60
2019-04-01T09:16:04.568Z,9.60
2019-04-01T09:18:33.642Z,9.40
2019-04-01T09:21:02.956Z,9.40
2019-04-01T09:23:32.033Z,9.40
2019-04-01T09:26:01.267Z,9.30
2019-04-01T09:28:30.303Z,9.30
2019-04-01T09:30:59.423Z,9.30
2019-04-01T09:33:28.602Z,9.30
2019-04-01T09:35:57.658Z,9.20
2019-04-01T09:38:26.852Z,9.30
2019-04-01T09:40:55.925Z,9.20
2019-04-01T09:43:24.959Z,9.10
2019-04-01T09:45:54.063Z,9.00
2019-04-01T09:48:25.220Z,9.00
2019-04-01T09:50:54.377Z,9.00
2019-04-01T09:53:23.564Z,9.00
2019-04-01T09:55:53.006Z,9.00
2019-04-01T09:58:22.088Z,9.00
2019-04-01T10:00:53.204Z,9.00
2019-04-01T10:03:22.117Z,9.00
2019-04-01T10:05:51.195Z,9.00
2019-04-01T10:08:20.463Z,9.00
2019-04-01T10:10:49.651Z,8.90
2019-04-01T10:13:18.880Z,8.90
2019-04-01T10:15:47.966Z,9.00
2019-04-01T10:18:17.978Z,8.80
2019-04-01T10:20:47.098Z,8.80
2019-04-01T10:23:16.256Z,8.70
2019-04-01T10:25:45.790Z,8.80
2019-04-01T10:28:15.023Z,8.70
2019-04-01T10:30:44.269Z,8.70
2019-04-01T10:33:13.374Z,8.80
2019-04-01T10:35:42.433Z,8.80
2019-04-01T10:38:11.556Z,8.70
2019-04-01T10:40:40.674Z,8.70
2019-04-01T10:43:09.718Z,8.70
2019-04-01T10:45:38.925Z,8.70
2019-04-01T10:48:08.224Z,8.70
2019-04-01T10:50:37.296Z,8.60
2019-04-01T10:53:06.502Z,8.60
2019-04-01T10:55:35.651Z,8.60
2019-04-01T10:58:04.785Z,8.70
2019-04-01T11:00:33.959Z,8.70
2019-04-01T11:03:06.018Z,8.60
2019-04-01T11:05:34.039Z,8.70
2019-04-01T11:08:03.305Z,8.80
2019-04-01T11:10:32.379Z,8.90
2019-04-01T11:13:01.435Z,8.80
2019-04-01T11:15:30.647Z,8.70
2019-04-01T11:17:59.731Z,8.70
2019-04-01T11:20:28.880Z,8.70
2019-04-01T11:22:57.975Z,8.70
2019-04-01T11:25:27.178Z,8.80
2019-04-01T11:27:56.140Z,8.80
2019-04-01T11:30:25.399Z,8.80
2019-04-01T11:32:54.495Z,8.80
2019-04-01T11:35:23.708Z,8.80
2019-04-01T11:37:53.011Z,8.90
2019-04-01T11:40:22.309Z,8.90
2019-04-01T11:42:52.935Z,9.00
2019-04-01T11:45:22.666Z,9.10
2019-04-01T11:47:52.057Z,9.10
2019-04-01T11:50:21.140Z,9.10
2019-04-01T11:52:50.288Z,9.10
2019-04-01T11:55:19.415Z,9.10
2019-04-01T11:57:48.506Z,9.10
2019-04-01T12:00:18.185Z,9.10
2019-04-01T12:02:47.296Z,9.30
2019-04-01T12:05:16.436Z,9.30
2019-04-01T12:07:45.643Z,9.30
2019-04-01T12:10:14.814Z,9.40
2019-04-01T12:12:43.939Z,9.40
2019-04-01T12:15:13.204Z,9.40
2019-04-01T12:17:42.415Z,9.40
2019-04-01T12:20:11.542Z,9.40
2019-04-01T12:22:41.453Z,9.40
2019-04-01T12:25:11.482Z,9.50
2019-04-01T12:27:41.882Z,9.50
2019-04-01T12:30:12.525Z,9.60
2019-04-01T12:32:45.283Z,9.60
2019-04-01T12:35:16.069Z,9.70
2019-04-01T12:37:46.020Z,9.70
2019-04-01T12:40:15.543Z,9.70
2019-04-01T12:42:46.333Z,9.80
2019-04-01T12:45:15.723Z,9.90
2019-04-01T12:47:44.855Z,9.90
2019-04-01T12:50:14.252Z,9.90
2019-04-01T12:52:43.295Z,9.90
2019-04-01T12:55:12.468Z,10.00
2019-04-01T12:57:41.592Z,10.10
2019-04-01T13:00:13.828Z,10.10
2019-04-01T13:02:42.924Z,10.10
2019-04-01T13:05:12.047Z,10.20
2019-04-01T13:07:41.343Z,10.20
2019-04-01T13:10:10.738Z,10.30
2019-04-01T13:12:39.907Z,10.30
2019-04-01T13:15:09.055Z,10.20
2019-04-01T13:17:38.241Z,10.20
2019-04-01T13:20:07.611Z,10.30
2019-04-01T13:22:38.005Z,10.30
2019-04-01T13:25:07.485Z,10.40
2019-04-01T13:27:36.590Z,10.40
2019-04-01T13:30:06.329Z,10.30
2019-04-01T13:32:35.495Z,10.30
2019-04-01T13:35:05.310Z,10.40
2019-04-01T13:37:34.564Z,10.40
2019-04-01T13:40:03.835Z,10.40
2019-04-01T13:42:33.009Z,10.50
2019-04-01T13:45:02.558Z,10.60
2019-04-01T13:47:31.816Z,10.60
2019-04-01T13:50:01.076Z,10.60
2019-04-01T13:52:30.145Z,10.70
2019-04-01T13:54:59.219Z,10.70
2019-04-01T13:57:28.351Z,10.60
2019-04-01T13:59:59.769Z,10.70
2019-04-01T14:02:31.017Z,10.70
2019-04-01T14:05:00.018Z,10.70
2019-04-01T14:07:31.204Z,10.70
2019-04-01T14:10:00.413Z,10.80
2019-04-01T14:12:29.576Z,10.80
2019-04-01T14:14:59.222Z,10.80
2019-04-01T14:17:28.705Z,10.80
2019-04-01T14:19:57.810Z,10.80
2019-04-01T14:22:26.875Z,10.80
2019-04-01T14:24:55.978Z,10.80
2019-04-01T14:27:25.665Z,10.90
2019-04-01T14:29:54.692Z,10.90
2019-04-01T14:32:23.870Z,11.00
2019-04-01T14:34:53.001Z,11.00
2019-04-01T14:37:26.165Z,11.00
2019-04-01T14:39:52.952Z,11.00
2019-04-01T14:42:22.146Z,11.10
2019-04-01T14:44:58.763Z,11.10
2019-04-01T14:47:28.057Z,11.10
2019-04-01T14:49:57.236Z,11.10
2019-04-01T14:52:32.532Z,11.10
2019-04-01T14:54:57.189Z,11.20
2019-04-01T14:57:26.474Z,11.20
2019-04-01T14:59:56.336Z,11.20
2019-04-01T15:02:25.667Z,11.20
2019-04-01T15:04:54.908Z,11.20
2019-04-01T15:07:24.399Z,11.20
2019-04-01T15:09:53.604Z,11.20
2019-04-01T15:12:22.723Z,11.20
2019-04-01T15:14:52.715Z,11.20
2019-04-01T15:17:22.099Z,11.20
2019-04-01T15:19:51.275Z,11.20
2019-04-01T15:22:20.344Z,11.20
2019-04-01T15:24:49.522Z,11.20
2019-04-01T15:27:18.612Z,11.20
2019-04-01T15:29:47.728Z,11.20
2019-04-01T15:32:16.881Z,11.20
2019-04-01T15:34:45.954Z,11.20
2019-04-01T15:37:15.061Z,11.20
2019-04-01T15:39:47.046Z,11.20
2019-04-01T15:42:15.114Z,11.10
2019-04-01T15:44:44.142Z,11.20
2019-04-01T15:47:13.308Z,11.20
2019-04-01T15:49:42.303Z,11.10
2019-04-01T15:52:11.461Z,11.10
2019-04-01T15:54:40.666Z,11.10
2019-04-01T15:57:09.826Z,11.10
2019-04-01T15:59:38.885Z,11.10
2019-04-01T16:02:08.050Z,11.10
2019-04-01T16:04:37.446Z,11.10
2019-04-01T16:07:06.712Z,11.10
2019-04-01T16:09:35.803Z,11.00
2019-04-01T16:12:04.899Z,11.00
2019-04-01T16:14:34.032Z,11.00
2019-04-01T16:17:03.130Z,11.00
2019-04-01T16:19:32.246Z,11.00
2019-04-01T16:22:01.244Z,11.00
2019-04-01T16:24:30.348Z,11.00
2019-04-01T16:26:59.843Z,11.00
2019-04-01T16:29:28.921Z,11.00
2019-04-01T16:31:58.155Z,10.90
2019-04-01T16:34:27.171Z,10.90
2019-04-01T16:36:56.275Z,10.90
2019-04-01T16:39:25.808Z,10.90
2019-04-01T16:41:55.066Z,10.90
2019-04-01T16:44:24.254Z,10.90
2019-04-01T16:46:53.554Z,10.90
2019-04-01T16:49:22.590Z,10.80
2019-04-01T16:51:51.715Z,10.80
2019-04-01T16:54:20.894Z,10.80
2019-04-01T16:56:50.043Z,10.80
2019-04-01T16:59:19.527Z,10.70
2019-04-01T17:01:48.922Z,10.70
2019-04-01T17:04:18.894Z,10.70
2019-04-01T17:06:48.965Z,10.60
2019-04-01T17:09:18.090Z,10.70
2019-04-01T17:11:47.319Z,10.60
2019-04-01T17:14:16.451Z,10.60
2019-04-01T17:16:46.664Z,10.60
2019-04-01T17:19:16.887Z,10.60
2019-04-01T17:21:46.057Z,10.50
2019-04-01T17:24:15.195Z,10.50
2019-04-01T17:27:02.027Z,10.40
2019-04-01T17:29:31.967Z,10.40
2019-04-01T17:32:01.275Z,10.40
2019-04-01T17:34:30.386Z,10.30
2019-04-01T17:37:01.139Z,10.30
2019-04-01T17:39:30.298Z,10.30
2019-04-01T17:41:59.375Z,10.20
2019-04-01T17:44:28.563Z,10.20
2019-04-01T17:46:57.611Z,10.10
2019-04-01T17:49:26.984Z,10.10
2019-04-01T17:51:56.441Z,10.00
2019-04-01T17:54:25.955Z,10.00
2019-04-01T17:56:55.199Z,9.90
2019-04-01T17:59:24.371Z,9.80
2019-04-01T18:01:56.805Z,9.70
2019-04-01T18:04:24.312Z,9.70
2019-04-01T18:06:53.327Z,9.70
2019-04-01T18:09:22.460Z,9.60
2019-04-01T18:11:51.591Z,9.50
2019-04-01T18:14:20.648Z,9.50
2019-04-01T18:16:49.710Z,9.50
2019-04-01T18:19:18.975Z,9.50
2019-04-01T18:21:48.033Z,9.40
2019-04-01T18:24:17.077Z,9.40
2019-04-01T18:26:46.125Z,9.30
2019-04-01T18:29:15.503Z,9.30
2019-04-01T18:31:44.639Z,9.30
2019-04-01T18:34:13.872Z,9.20
2019-04-01T18:36:43.002Z,9.20
2019-04-01T18:39:12.189Z,9.10
2019-04-01T18:41:41.398Z,9.10
2019-04-01T18:44:10.654Z,9.10
2019-04-01T18:46:39.730Z,9.00
2019-04-01T18:49:08.780Z,9.00
2019-04-01T18:51:37.843Z,8.90
2019-04-01T18:54:06.846Z,8.90
2019-04-01T18:56:35.933Z,8.90
2019-04-01T18:59:05.477Z,8.80
2019-04-01T19:01:34.501Z,8.80
2019-04-01T19:04:03.612Z,8.80
2019-04-01T19:06:32.712Z,8.70
2019-04-01T19:09:09.215Z,8.70
2019-04-01T19:11:32.566Z,8.70
2019-04-01T19:14:01.996Z,8.60
2019-04-01T19:16:31.330Z,8.60
2019-04-01T19:19:00.445Z,8.50
2019-04-01T19:21:29.748Z,8.50
2019-04-01T19:23:59.193Z,8.40
2019-04-01T19:26:29.167Z,8.40
2019-04-01T19:28:58.417Z,8.40
2019-04-01T19:31:27.613Z,8.30
2019-04-01T19:33:56.767Z,8.30
2019-04-01T19:36:25.899Z,8.20
2019-04-01T19:38:58.247Z,8.20
2019-04-01T19:41:27.538Z,8.20
2019-04-01T19:43:56.598Z,8.10
2019-04-01T19:46:25.707Z,8.00
2019-04-01T19:48:54.756Z,8.00
2019-04-01T19:51:23.865Z,8.00
2019-04-01T19:53:53.245Z,7.90
2019-04-01T19:56:22.813Z,7.90
2019-04-01T19:58:52.027Z,7.90
2019-04-01T20:01:21.111Z,7.80
2019-04-01T20:03:50.197Z,7.80
2019-04-01T20:06:19.295Z,7.80
2019-04-01T20:08:49.772Z,7.70
2019-04-01T20:11:19.054Z,7.70
2019-04-01T20:13:48.229Z,7.60
2019-04-01T20:16:17.353Z,7.60
2019-04-01T20:18:46.397Z,7.60
2019-04-01T20:21:15.659Z,7.60
2019-04-01T20:23:44.744Z,7.50
2019-04-01T20:26:13.928Z,7.50
2019-04-01T20:28:43.074Z,7.40
2019-04-01T20:31:12.171Z,7.40
2019-04-01T20:33:41.220Z,7.40
2019-04-01T20:36:10.774Z,7.40
2019-04-01T20:38:39.776Z,7.30
2019-04-01T20:41:08.924Z,7.30
2019-04-01T20:43:38.062Z,7.30
2019-04-01T20:46:07.066Z,7.20
2019-04-01T20:48:36.349Z,7.20
2019-04-01T20:51:05.467Z,7.20
2019-04-01T20:53:34.512Z,7.10
2019-04-01T20:56:03.721Z,7.10
2019-04-01T20:58:32.842Z,7.10
2019-04-01T21:01:01.941Z,7.10
2019-04-01T21:03:31.135Z,7.00
2019-04-01T21:06:00.363Z,7.00
2019-04-01T21:08:29.477Z,7.00
2019-04-01T21:10:58.614Z,6.90
2019-04-01T21:13:27.848Z,6.90
2019-04-01T21:15:56.922Z,6.80
2019-04-01T21:18:25.892Z,6.80
2019-04-01T21:20:54.888Z,6.80
2019-04-01T21:23:23.999Z,6.80
2019-04-01T21:25:53.074Z,6.70
2019-04-01T21:28:23.919Z,6.70
2019-04-01T21:30:52.878Z,6.60
2019-04-01T21:33:21.913Z,6.60
2019-04-01T21:35:50.966Z,6.60
2019-04-01T21:38:19.978Z,6.50
2019-04-01T21:40:49.072Z,6.50
2019-04-01T21:43:19.223Z,6.50
2019-04-01T21:45:48.868Z,6.40
2019-04-01T21:48:17.937Z,6.40
2019-04-01T21:50:47.137Z,6.30
2019-04-01T21:56:32.991Z,6.30
2019-04-01T21:59:03.385Z,6.30
2019-04-01T22:01:32.611Z,6.20
2019-04-01T22:04:01.990Z,6.20
2019-04-01T22:06:31.382Z,6.20
2019-04-01T22:09:00.792Z,6.20
2019-04-01T22:11:30.347Z,6.10
2019-04-01T22:13:59.720Z,6.10
2019-04-01T22:16:30.189Z,6.00
2019-04-01T22:18:59.733Z,6.00
2019-04-01T22:21:29.143Z,6.00
2019-04-01T22:23:58.574Z,5.90
2019-04-01T22:26:28.051Z,5.90
2019-04-01T22:28:59.632Z,5.90
2019-04-01T22:31:28.949Z,5.90
2019-04-01T22:34:01.361Z,5.90
2019-04-01T22:36:31.471Z,5.90
2019-04-01T22:39:00.973Z,5.90
2019-04-01T22:41:30.422Z,5.80
2019-04-01T22:43:59.754Z,5.80
2019-04-01T22:46:30.536Z,5.80
2019-04-01T22:48:59.763Z,5.80
2019-04-01T22:51:29.305Z,5.70
2019-04-01T22:53:58.713Z,5.70
2019-04-01T22:56:27.918Z,5.70
2019-04-01T22:58:57.212Z,5.70
2019-04-01T23:01:26.572Z,5.70
2019-04-01T23:03:55.854Z,5.60
2019-04-01T23:06:26.842Z,5.60
2019-04-01T23:08:56.234Z,5.60
2019-04-01T23:11:27.719Z,5.60
2019-04-01T23:13:56.692Z,5.60
2019-04-01T23:16:25.950Z,5.60
2019-04-01T23:18:55.350Z,5.50
2019-04-01T23:21:27.035Z,5.50
2019-04-01T23:23:56.677Z,5.50
2019-04-01T23:26:26.289Z,5.50
2019-04-01T23:28:55.739Z,5.50
2019-04-01T23:31:25.082Z,5.40
2019-04-01T23:33:54.362Z,5.40
2019-04-01T23:36:23.630Z,5.40
2019-04-01T23:38:52.840Z,5.40
2019-04-01T23:41:22.163Z,5.40
2019-04-01T23:43:51.322Z,5.40
2019-04-01T23:46:20.624Z,5.40
2019-04-01T23:48:49.831Z,5.40
2019-04-01T23:51:19.065Z,5.40
2019-04-01T23:53:48.360Z,5.40
2019-04-01T23:56:17.731Z,5.40
2019-04-01T23:58:46.934Z,5.40
